sensor_id;sensor_type;location;lat;lon;timestamp;pressure;altitude;pressure_sealevel;temperature;humidity
47815;BME280;33579;50.058;18.130;2022-07-29T00:00:06;99424.03;;;20.14;83.97
47815;BME280;33579;50.058;18.130;2022-07-29T00:01:08;99428.13;;;20.10;84.01
47815;BME280;33579;50.058;18.130;2022-07-29T00:02:20;99419.22;;;20.03;84.30
47815;BME280;33579;50.058;18.130;2022-07-29T00:03:21;99417.78;;;20.00;83.61
47815;BME280;33579;50.058;18.130;2022-07-29T00:04:23;99428.16;;;19.95;82.77
47815;BME280;33579;50.058;18.130;2022-07-29T00:05:25;99425.50;;;19.95;82.60
47815;BME280;33579;50.058;18.130;2022-07-29T00:06:26;99425.31;;;19.97;82.08
47815;BME280;33579;50.058;18.130;2022-07-29T00:07:28;99423.28;;;19.99;81.94
47815;BME280;33579;50.058;18.130;2022-07-29T00:08:29;99430.09;;;20.01;81.66
47815;BME280;33579;50.058;18.130;2022-07-29T00:09:31;99426.59;;;20.01;81.65
47815;BME280;33579;50.058;18.130;2022-07-29T00:10:42;99425.78;;;20.00;81.62
47815;BME280;33579;50.058;18.130;2022-07-29T00:11:43;99428.06;;;20.03;81.76
47815;BME280;33579;50.058;18.130;2022-07-29T00:12:45;99428.06;;;20.03;81.63
47815;BME280;33579;50.058;18.130;2022-07-29T00:13:47;99425.19;;;20.05;81.42
47815;BME280;33579;50.058;18.130;2022-07-29T00:14:52;99424.81;;;20.08;81.30
47815;BME280;33579;50.058;18.130;2022-07-29T00:15:54;99425.47;;;20.10;81.98
47815;BME280;33579;50.058;18.130;2022-07-29T00:16:56;99426.03;;;20.05;82.25
47815;BME280;33579;50.058;18.130;2022-07-29T00:17:57;99424.81;;;20.08;81.95
47815;BME280;33579;50.058;18.130;2022-07-29T00:18:59;99424.63;;;20.10;81.92
47815;BME280;33579;50.058;18.130;2022-07-29T00:20:03;99422.16;;;20.08;82.02
47815;BME280;33579;50.058;18.130;2022-07-29T00:21:05;99413.31;;;20.07;82.05
47815;BME280;33579;50.058;18.130;2022-07-29T00:22:06;99413.94;;;20.10;82.17
47815;BME280;33579;50.058;18.130;2022-07-29T00:23:08;99409.59;;;20.08;81.88
47815;BME280;33579;50.058;18.130;2022-07-29T00:24:14;99412.59;;;19.99;85.48
47815;BME280;33579;50.058;18.130;2022-07-29T00:25:16;99413.63;;;19.83;86.37
47815;BME280;33579;50.058;18.130;2022-07-29T00:26:17;99411.16;;;19.81;86.86
47815;BME280;33579;50.058;18.130;2022-07-29T00:27:19;99412.16;;;19.80;86.51
47815;BME280;33579;50.058;18.130;2022-07-29T00:28:20;99409.63;;;19.72;86.85
47815;BME280;33579;50.058;18.130;2022-07-29T00:29:22;99405.41;;;19.62;87.49
47815;BME280;33579;50.058;18.130;2022-07-29T00:30:39;99414.22;;;19.63;87.09
47815;BME280;33579;50.058;18.130;2022-07-29T00:31:40;99406.03;;;19.64;87.52
47815;BME280;33579;50.058;18.130;2022-07-29T00:32:42;99413.97;;;19.58;87.51
47815;BME280;33579;50.058;18.130;2022-07-29T00:33:43;99416.25;;;19.61;86.53
47815;BME280;33579;50.058;18.130;2022-07-29T00:34:45;99416.91;;;19.63;86.46
47815;BME280;33579;50.058;18.130;2022-07-29T00:35:46;99400.81;;;19.56;86.25
47815;BME280;33579;50.058;18.130;2022-07-29T00:36:48;99410.28;;;19.59;86.52
47815;BME280;33579;50.058;18.130;2022-07-29T00:37:49;99406.16;;;19.56;86.12
47815;BME280;33579;50.058;18.130;2022-07-29T00:38:51;99406.16;;;19.56;85.86
47815;BME280;33579;50.058;18.130;2022-07-29T00:39:52;99414.16;;;19.56;85.91
47815;BME280;33579;50.058;18.130;2022-07-29T00:40:54;99397.88;;;19.51;85.94
47815;BME280;33579;50.058;18.130;2022-07-29T00:41:56;99404.41;;;19.48;86.25
47815;BME280;33579;50.058;18.130;2022-07-29T00:42:57;99404.69;;;19.54;85.40
47815;BME280;33579;50.058;18.130;2022-07-29T00:43:59;99407.94;;;19.49;85.69
47815;BME280;33579;50.058;18.130;2022-07-29T00:45:01;99411.22;;;19.51;85.71
47815;BME280;33579;50.058;18.130;2022-07-29T00:46:02;99406.91;;;19.50;85.78
47815;BME280;33579;50.058;18.130;2022-07-29T00:47:04;99399.72;;;19.50;85.66
47815;BME280;33579;50.058;18.130;2022-07-29T00:48:06;99409.41;;;19.51;85.65
47815;BME280;33579;50.058;18.130;2022-07-29T00:49:08;99406.06;;;19.49;85.95
47815;BME280;33579;50.058;18.130;2022-07-29T00:50:12;99405.44;;;19.47;85.88
47815;BME280;33579;50.058;18.130;2022-07-29T00:51:13;99394.69;;;19.41;85.99
47815;BME280;33579;50.058;18.130;2022-07-29T00:52:16;99397.56;;;19.39;86.25
47815;BME280;33579;50.058;18.130;2022-07-29T00:53:18;99397.28;;;19.34;86.99
47815;BME280;33579;50.058;18.130;2022-07-29T00:54:20;99393.97;;;19.32;86.96
47815;BME280;33579;50.058;18.130;2022-07-29T00:55:22;99398.47;;;19.31;86.99
47815;BME280;33579;50.058;18.130;2022-07-29T00:56:23;99397.81;;;19.29;87.03
47815;BME280;33579;50.058;18.130;2022-07-29T00:57:25;99392.97;;;19.18;88.39
47815;BME280;33579;50.058;18.130;2022-07-29T00:58:26;99388.84;;;19.15;88.18
47815;BME280;33579;50.058;18.130;2022-07-29T00:59:28;99398.84;;;19.13;88.23
47815;BME280;33579;50.058;18.130;2022-07-29T01:00:35;99396.47;;;19.18;88.24
47815;BME280;33579;50.058;18.130;2022-07-29T01:01:37;99398.13;;;19.19;87.66
47815;BME280;33579;50.058;18.130;2022-07-29T01:02:39;99398.50;;;19.16;87.83
47815;BME280;33579;50.058;18.130;2022-07-29T01:03:40;99395.28;;;19.21;87.45
47815;BME280;33579;50.058;18.130;2022-07-29T01:04:42;99396.56;;;19.25;87.35
47815;BME280;33579;50.058;18.130;2022-07-29T01:05:44;99400.03;;;19.26;86.97
47815;BME280;33579;50.058;18.130;2022-07-29T01:06:53;99398.47;;;19.31;86.96
47815;BME280;33579;50.058;18.130;2022-07-29T01:07:56;99400.94;;;19.33;86.72
47815;BME280;33579;50.058;18.130;2022-07-29T01:08:59;99399.94;;;19.34;86.56
47815;BME280;33579;50.058;18.130;2022-07-29T01:10:03;99404.25;;;19.35;86.31
47815;BME280;33579;50.058;18.130;2022-07-29T01:11:05;99402.91;;;19.39;86.23
47815;BME280;33579;50.058;18.130;2022-07-29T01:12:07;99407.47;;;19.30;86.83
47815;BME280;33579;50.058;18.130;2022-07-29T01:13:09;99408.41;;;19.22;87.08
47815;BME280;33579;50.058;18.130;2022-07-29T01:14:11;99406.59;;;19.23;87.04
47815;BME280;33579;50.058;18.130;2022-07-29T01:15:13;99403.28;;;19.21;87.25
47815;BME280;33579;50.058;18.130;2022-07-29T01:16:21;99411.91;;;19.23;87.18
47815;BME280;33579;50.058;18.130;2022-07-29T01:17:30;99416.41;;;19.22;87.39
47815;BME280;33579;50.058;18.130;2022-07-29T01:18:42;99410.59;;;19.19;87.29
47815;BME280;33579;50.058;18.130;2022-07-29T01:21:33;99413.38;;;19.26;87.24
47815;BME280;33579;50.058;18.130;2022-07-29T01:25:05;99409.97;;;19.17;87.62
47815;BME280;33579;50.058;18.130;2022-07-29T01:27:45;99406.75;;;19.06;87.90
47815;BME280;33579;50.058;18.130;2022-07-29T01:29:58;99398.00;;;18.98;88.72
47815;BME280;33579;50.058;18.130;2022-07-29T01:31:02;99398.00;;;18.98;88.83
47815;BME280;33579;50.058;18.130;2022-07-29T01:32:09;99395.16;;;18.99;89.16
47815;BME280;33579;50.058;18.130;2022-07-29T01:33:29;99398.28;;;18.88;90.67
47815;BME280;33579;50.058;18.130;2022-07-29T01:35:45;99397.34;;;18.80;91.39
47815;BME280;33579;50.058;18.130;2022-07-29T01:36:54;99393.22;;;18.78;91.57
47815;BME280;33579;50.058;18.130;2022-07-29T01:38:09;99388.97;;;18.68;91.98
47815;BME280;33579;50.058;18.130;2022-07-29T01:39:24;99394.41;;;18.75;91.83
47815;BME280;33579;50.058;18.130;2022-07-29T01:40:32;99393.84;;;18.65;91.92
47815;BME280;33579;50.058;18.130;2022-07-29T01:41:38;99398.56;;;18.39;92.98
47815;BME280;33579;50.058;18.130;2022-07-29T01:42:48;99397.47;;;18.34;93.98
47815;BME280;33579;50.058;18.130;2022-07-29T01:43:57;99399.50;;;18.47;93.29
47815;BME280;33579;50.058;18.130;2022-07-29T01:46:31;99396.66;;;18.48;92.78
47815;BME280;33579;50.058;18.130;2022-07-29T01:47:39;99396.28;;;18.51;93.04
47815;BME280;33579;50.058;18.130;2022-07-29T01:48:53;99393.91;;;18.57;92.80
47815;BME280;33579;50.058;18.130;2022-07-29T01:49:58;99391.63;;;18.53;93.30
47815;BME280;33579;50.058;18.130;2022-07-29T01:52:18;99389.88;;;18.61;93.99
47815;BME280;33579;50.058;18.130;2022-07-29T01:53:29;99396.88;;;18.62;92.87
47815;BME280;33579;50.058;18.130;2022-07-29T01:54:41;99393.38;;;18.61;92.71
47815;BME280;33579;50.058;18.130;2022-07-29T01:55:48;99398.91;;;18.60;92.48
47815;BME280;33579;50.058;18.130;2022-07-29T01:56:51;99402.38;;;18.60;92.77
47815;BME280;33579;50.058;18.130;2022-07-29T01:57:56;99395.88;;;18.63;92.72
47815;BME280;33579;50.058;18.130;2022-07-29T01:58:59;99393.03;;;18.64;92.87
47815;BME280;33579;50.058;18.130;2022-07-29T02:00:04;99393.56;;;18.60;92.98
47815;BME280;33579;50.058;18.130;2022-07-29T02:01:12;99397.31;;;18.50;93.75
47815;BME280;33579;50.058;18.130;2022-07-29T02:02:16;99393.81;;;18.50;94.15
47815;BME280;33579;50.058;18.130;2022-07-29T02:03:18;99387.66;;;18.49;93.75
47815;BME280;33579;50.058;18.130;2022-07-29T02:04:20;99383.16;;;18.50;94.19
47815;BME280;33579;50.058;18.130;2022-07-29T02:05:30;99381.13;;;18.52;94.24
47815;BME280;33579;50.058;18.130;2022-07-29T02:06:34;99381.13;;;18.52;94.16
47815;BME280;33579;50.058;18.130;2022-07-29T02:07:40;99378.28;;;18.53;94.66
47815;BME280;33579;50.058;18.130;2022-07-29T02:08:42;99372.16;;;18.53;94.58
47815;BME280;33579;50.058;18.130;2022-07-29T02:09:47;99383.78;;;18.52;94.56
47815;BME280;33579;50.058;18.130;2022-07-29T02:10:51;99371.31;;;18.52;94.67
47815;BME280;33579;50.058;18.130;2022-07-29T02:11:55;99372.78;;;18.55;93.93
47815;BME280;33579;50.058;18.130;2022-07-29T02:12:58;99378.94;;;18.56;93.91
47815;BME280;33579;50.058;18.130;2022-07-29T02:14:01;99377.09;;;18.56;93.74
47815;BME280;33579;50.058;18.130;2022-07-29T02:15:04;99373.59;;;18.56;93.91
47815;BME280;33579;50.058;18.130;2022-07-29T02:16:08;99377.00;;;18.49;94.23
47815;BME280;33579;50.058;18.130;2022-07-29T02:17:12;99376.53;;;18.46;94.50
47815;BME280;33579;50.058;18.130;2022-07-29T02:18:17;99380.22;;;18.45;94.83
47815;BME280;33579;50.058;18.130;2022-07-29T02:19:21;99385.16;;;18.48;94.73
47815;BME280;33579;50.058;18.130;2022-07-29T02:20:25;99375.78;;;18.52;94.81
47815;BME280;33579;50.058;18.130;2022-07-29T02:21:29;99377.47;;;18.53;94.40
47815;BME280;33579;50.058;18.130;2022-07-29T02:22:33;99377.09;;;18.56;94.52
47815;BME280;33579;50.058;18.130;2022-07-29T02:23:37;99375.63;;;18.53;94.70
47815;BME280;33579;50.058;18.130;2022-07-29T02:24:52;99372.50;;;18.50;95.28
47815;BME280;33579;50.058;18.130;2022-07-29T02:25:56;99381.50;;;18.49;95.49
47815;BME280;33579;50.058;18.130;2022-07-29T02:26:59;99373.97;;;18.52;95.47
47815;BME280;33579;50.058;18.130;2022-07-29T02:28:02;99374.44;;;18.56;95.08
47815;BME280;33579;50.058;18.130;2022-07-29T02:29:06;99389.88;;;18.61;94.61
47815;BME280;33579;50.058;18.130;2022-07-29T02:30:11;99383.91;;;18.59;94.87
47815;BME280;33579;50.058;18.130;2022-07-29T02:31:14;99385.56;;;18.60;95.04
47815;BME280;33579;50.058;18.130;2022-07-29T02:32:18;99383.06;;;18.58;95.20
47815;BME280;33579;50.058;18.130;2022-07-29T02:33:21;99386.59;;;18.59;95.56
47815;BME280;33579;50.058;18.130;2022-07-29T02:34:25;99389.97;;;18.52;96.34
47815;BME280;33579;50.058;18.130;2022-07-29T02:35:27;99388.94;;;18.53;96.30
47815;BME280;33579;50.058;18.130;2022-07-29T02:36:36;99387.28;;;18.52;96.41
47815;BME280;33579;50.058;18.130;2022-07-29T02:37:38;99387.47;;;18.51;96.81
47815;BME280;33579;50.058;18.130;2022-07-29T02:38:42;99392.78;;;18.51;96.49
47815;BME280;33579;50.058;18.130;2022-07-29T02:39:45;99383.78;;;18.52;96.34
47815;BME280;33579;50.058;18.130;2022-07-29T02:40:50;99388.13;;;18.53;96.33
47815;BME280;33579;50.058;18.130;2022-07-29T02:42:01;99388.38;;;18.43;97.32
47815;BME280;33579;50.058;18.130;2022-07-29T02:43:05;99384.16;;;18.34;98.45
47815;BME280;33579;50.058;18.130;2022-07-29T02:44:13;99379.81;;;18.33;98.11
47815;BME280;33579;50.058;18.130;2022-07-29T02:45:15;99375.97;;;18.35;97.71
47815;BME280;33579;50.058;18.130;2022-07-29T02:46:20;99378.44;;;18.37;97.71
47815;BME280;33579;50.058;18.130;2022-07-29T02:47:40;99382.41;;;18.41;97.62
47815;BME280;33579;50.058;18.130;2022-07-29T02:48:56;99385.22;;;18.39;97.94
47815;BME280;33579;50.058;18.130;2022-07-29T02:51:24;99380.81;;;18.32;98.71
47815;BME280;33579;50.058;18.130;2022-07-29T02:52:47;99383.03;;;18.28;98.77
47815;BME280;33579;50.058;18.130;2022-07-29T02:53:54;99375.69;;;18.30;98.65
47815;BME280;33579;50.058;18.130;2022-07-29T02:55:02;99377.03;;;18.26;98.69
47815;BME280;33579;50.058;18.130;2022-07-29T02:56:10;99363.97;;;18.16;99.63
47815;BME280;33579;50.058;18.130;2022-07-29T02:57:20;99368.94;;;18.19;99.62
47815;BME280;33579;50.058;18.130;2022-07-29T02:58:29;99359.94;;;18.20;99.77
47815;BME280;33579;50.058;18.130;2022-07-29T02:59:34;99371.59;;;18.19;99.62
47815;BME280;33579;50.058;18.130;2022-07-29T03:00:39;99361.94;;;18.18;99.91
47815;BME280;33579;50.058;18.130;2022-07-29T03:01:42;99357.34;;;18.12;100.00
47815;BME280;33579;50.058;18.130;2022-07-29T03:02:50;99358.56;;;18.01;100.00
47815;BME280;33579;50.058;18.130;2022-07-29T03:03:53;99354.97;;;17.94;100.00
47815;BME280;33579;50.058;18.130;2022-07-29T03:04:56;99353.59;;;17.98;100.00
47815;BME280;33579;50.058;18.130;2022-07-29T03:06:02;99354.25;;;18.00;100.00
47815;BME280;33579;50.058;18.130;2022-07-29T03:07:04;99355.09;;;18.01;100.00
47815;BME280;33579;50.058;18.130;2022-07-29T03:08:09;99353.59;;;17.98;100.00
47815;BME280;33579;50.058;18.130;2022-07-29T03:09:11;99356.91;;;18.00;100.00
47815;BME280;33579;50.058;18.130;2022-07-29T03:10:14;99353.94;;;18.03;100.00
47815;BME280;33579;50.058;18.130;2022-07-29T03:11:16;99360.91;;;18.04;100.00
47815;BME280;33579;50.058;18.130;2022-07-29T03:12:19;99352.94;;;18.04;100.00
47815;BME280;33579;50.058;18.130;2022-07-29T03:13:21;99349.53;;;18.10;100.00
47815;BME280;33579;50.058;18.130;2022-07-29T03:14:24;99345.97;;;18.18;100.00
47815;BME280;33579;50.058;18.130;2022-07-29T03:15:26;99356.81;;;18.17;100.00
47815;BME280;33579;50.058;18.130;2022-07-29T03:16:28;99353.50;;;18.15;100.00
47815;BME280;33579;50.058;18.130;2022-07-29T03:17:31;99347.72;;;18.11;100.00
47815;BME280;33579;50.058;18.130;2022-07-29T03:18:33;99351.84;;;18.14;100.00
47815;BME280;33579;50.058;18.130;2022-07-29T03:19:35;99360.03;;;18.12;100.00
47815;BME280;33579;50.058;18.130;2022-07-29T03:20:38;99351.84;;;18.14;100.00
47815;BME280;33579;50.058;18.130;2022-07-29T03:21:39;99361.03;;;18.11;100.00
47815;BME280;33579;50.058;18.130;2022-07-29T03:22:42;99355.09;;;18.01;100.00
47815;BME280;33579;50.058;18.130;2022-07-29T03:23:44;99366.59;;;17.69;100.00
47815;BME280;33579;50.058;18.130;2022-07-29T03:24:46;99364.47;;;17.65;100.00
47815;BME280;33579;50.058;18.130;2022-07-29T03:25:48;99367.31;;;17.63;100.00
47815;BME280;33579;50.058;18.130;2022-07-29T03:26:50;99365.47;;;17.64;100.00
47815;BME280;33579;50.058;18.130;2022-07-29T03:27:51;99365.81;;;17.61;100.00
47815;BME280;33579;50.058;18.130;2022-07-29T03:28:54;99369.97;;;17.63;100.00
47815;BME280;33579;50.058;18.130;2022-07-29T03:29:56;99367.13;;;17.65;100.00
47815;BME280;33579;50.058;18.130;2022-07-29T03:30:57;99365.78;;;17.69;100.00
47815;BME280;33579;50.058;18.130;2022-07-29T03:31:59;99359.63;;;17.68;100.00
47815;BME280;33579;50.058;18.130;2022-07-29T03:33:03;99368.72;;;17.74;100.00
47815;BME280;33579;50.058;18.130;2022-07-29T03:34:13;99372.88;;;17.77;100.00
47815;BME280;33579;50.058;18.130;2022-07-29T03:35:15;99366.91;;;17.75;100.00
47815;BME280;33579;50.058;18.130;2022-07-29T03:36:17;99372.03;;;17.76;100.00
47815;BME280;33579;50.058;18.130;2022-07-29T03:37:18;99363.53;;;17.81;100.00
47815;BME280;33579;50.058;18.130;2022-07-29T03:38:23;99363.66;;;17.88;100.00
47815;BME280;33579;50.058;18.130;2022-07-29T03:39:29;99365.31;;;17.89;100.00
47815;BME280;33579;50.058;18.130;2022-07-29T03:40:43;99363.97;;;17.93;100.00
47815;BME280;33579;50.058;18.130;2022-07-29T03:41:48;99363.88;;;18.01;100.00
47815;BME280;33579;50.058;18.130;2022-07-29T03:42:52;99366.91;;;17.98;100.00
47815;BME280;33579;50.058;18.130;2022-07-29T03:43:56;99364.25;;;17.98;100.00
47815;BME280;33579;50.058;18.130;2022-07-29T03:45:02;99360.41;;;18.01;100.00
47815;BME280;33579;50.058;18.130;2022-07-29T03:46:07;99359.41;;;18.02;100.00
47815;BME280;33579;50.058;18.130;2022-07-29T03:47:12;99363.75;;;18.03;100.00
47815;BME280;33579;50.058;18.130;2022-07-29T03:48:17;99363.75;;;18.03;100.00
47815;BME280;33579;50.058;18.130;2022-07-29T03:49:21;99358.94;;;17.98;100.00
47815;BME280;33579;50.058;18.130;2022-07-29T03:50:23;99358.13;;;17.97;100.00
47815;BME280;33579;50.058;18.130;2022-07-29T03:51:25;99362.75;;;17.95;100.00
47815;BME280;33579;50.058;18.130;2022-07-29T03:52:34;99365.78;;;17.92;100.00
47815;BME280;33579;50.058;18.130;2022-07-29T03:53:36;99368.81;;;17.89;100.00
47815;BME280;33579;50.058;18.130;2022-07-29T03:54:38;99362.63;;;17.89;100.00
47815;BME280;33579;50.058;18.130;2022-07-29T03:55:43;99372.28;;;17.90;100.00
47815;BME280;33579;50.058;18.130;2022-07-29T03:56:48;99365.19;;;17.82;100.00
47815;BME280;33579;50.058;18.130;2022-07-29T03:57:51;99369.94;;;17.95;100.00
47815;BME280;33579;50.058;18.130;2022-07-29T03:58:54;99371.47;;;17.89;100.00
47815;BME280;33579;50.058;18.130;2022-07-29T03:59:57;99378.97;;;17.62;100.00
47815;BME280;33579;50.058;18.130;2022-07-29T04:00:59;99382.13;;;17.58;100.00
47815;BME280;33579;50.058;18.130;2022-07-29T04:02:02;99381.50;;;17.55;100.00
47815;BME280;33579;50.058;18.130;2022-07-29T04:03:05;99378.19;;;17.53;100.00
47815;BME280;33579;50.058;18.130;2022-07-29T04:04:12;99376.47;;;17.61;100.00
47815;BME280;33579;50.058;18.130;2022-07-29T04:05:15;99379.44;;;17.66;100.00
47815;BME280;33579;50.058;18.130;2022-07-29T04:06:16;99373.25;;;17.74;100.00
47815;BME280;33579;50.058;18.130;2022-07-29T04:07:18;99367.25;;;17.72;100.00
47815;BME280;33579;50.058;18.130;2022-07-29T04:08:20;99369.38;;;17.76;100.00
47815;BME280;33579;50.058;18.130;2022-07-29T04:09:21;99376.34;;;17.77;100.00
47815;BME280;33579;50.058;18.130;2022-07-29T04:10:23;99372.88;;;17.77;100.00
47815;BME280;33579;50.058;18.130;2022-07-29T04:11:32;99359.75;;;17.75;100.00
47815;BME280;33579;50.058;18.130;2022-07-29T04:12:54;99364.53;;;17.80;100.00
47815;BME280;33579;50.058;18.130;2022-07-29T04:13:55;99370.88;;;17.79;100.00
47815;BME280;33579;50.058;18.130;2022-07-29T04:14:57;99364.50;;;17.88;100.00
47815;BME280;33579;50.058;18.130;2022-07-29T04:15:59;99367.63;;;17.92;100.00
47815;BME280;33579;50.058;18.130;2022-07-29T04:17:02;99362.44;;;17.98;100.00
47815;BME280;33579;50.058;18.130;2022-07-29T04:18:03;99369.56;;;17.98;100.00
47815;BME280;33579;50.058;18.130;2022-07-29T04:19:05;99368.56;;;17.99;100.00
47815;BME280;33579;50.058;18.130;2022-07-29T04:20:07;99367.25;;;18.03;100.00
47815;BME280;33579;50.058;18.130;2022-07-29T04:21:08;99370.22;;;18.00;100.00
47815;BME280;33579;50.058;18.130;2022-07-29T04:22:10;99372.38;;;18.05;100.00
47815;BME280;33579;50.058;18.130;2022-07-29T04:23:11;99367.25;;;18.03;100.00
47815;BME280;33579;50.058;18.130;2022-07-29T04:24:13;99368.53;;;18.07;100.00
47815;BME280;33579;50.058;18.130;2022-07-29T04:25:15;99367.53;;;18.08;100.00
47815;BME280;33579;50.058;18.130;2022-07-29T04:26:18;99367.16;;;18.11;100.00
47815;BME280;33579;50.058;18.130;2022-07-29T04:27:20;99366.63;;;18.16;100.00
47815;BME280;33579;50.058;18.130;2022-07-29T04:28:21;99359.94;;;18.20;100.00
47815;BME280;33579;50.058;18.130;2022-07-29T04:29:23;99354.59;;;18.20;100.00
47815;BME280;33579;50.058;18.130;2022-07-29T04:30:24;99357.75;;;18.24;100.00
47815;BME280;33579;50.058;18.130;2022-07-29T04:31:26;99355.56;;;18.28;100.00
47815;BME280;33579;50.058;18.130;2022-07-29T04:32:27;99356.66;;;18.33;100.00
47815;BME280;33579;50.058;18.130;2022-07-29T04:33:29;99350.81;;;18.38;100.00
47815;BME280;33579;50.058;18.130;2022-07-29T04:34:30;99354.28;;;18.38;100.00
47815;BME280;33579;50.058;18.130;2022-07-29T04:35:36;99359.28;;;18.42;100.00
47815;BME280;33579;50.058;18.130;2022-07-29T04:36:50;99353.09;;;18.41;100.00
47815;BME280;33579;50.058;18.130;2022-07-29T04:37:52;99354.59;;;18.44;100.00
47815;BME280;33579;50.058;18.130;2022-07-29T04:38:54;99356.72;;;18.48;100.00
47815;BME280;33579;50.058;18.130;2022-07-29T04:39:55;99360.66;;;18.52;100.00
47815;BME280;33579;50.058;18.130;2022-07-29T04:40:57;99359.47;;;18.55;100.00
47815;BME280;33579;50.058;18.130;2022-07-29T04:41:58;99361.75;;;18.58;100.00
47815;BME280;33579;50.058;18.130;2022-07-29T04:43:00;99353.59;;;18.60;100.00
47815;BME280;33579;50.058;18.130;2022-07-29T04:44:06;99352.22;;;18.64;100.00
47815;BME280;33579;50.058;18.130;2022-07-29T04:45:09;99357.81;;;18.69;100.00
47815;BME280;33579;50.058;18.130;2022-07-29T04:46:10;99357.81;;;18.69;100.00
47815;BME280;33579;50.058;18.130;2022-07-29T04:47:12;99361.97;;;18.72;100.00
47815;BME280;33579;50.058;18.130;2022-07-29T04:48:14;99361.59;;;18.75;100.00
47815;BME280;33579;50.058;18.130;2022-07-29T04:49:17;99361.03;;;18.79;100.00
47815;BME280;33579;50.058;18.130;2022-07-29T04:50:18;99358.84;;;18.83;100.00
47815;BME280;33579;50.058;18.130;2022-07-29T04:51:20;99357.09;;;18.90;100.00
47815;BME280;33579;50.058;18.130;2022-07-29T04:52:22;99359.03;;;18.96;99.60
47815;BME280;33579;50.058;18.130;2022-07-29T04:53:24;99362.66;;;19.04;99.66
47815;BME280;33579;50.058;18.130;2022-07-29T04:54:25;99361.63;;;19.05;99.16
47815;BME280;33579;50.058;18.130;2022-07-29T04:55:27;99362.09;;;19.08;99.27
47815;BME280;33579;50.058;18.130;2022-07-29T04:56:28;99367.03;;;19.12;98.84
47815;BME280;33579;50.058;18.130;2022-07-29T04:57:30;99362.19;;;19.15;98.86
47815;BME280;33579;50.058;18.130;2022-07-29T04:58:34;99365.47;;;19.17;99.00
47815;BME280;33579;50.058;18.130;2022-07-29T04:59:36;99366.28;;;19.18;98.58
47815;BME280;33579;50.058;18.130;2022-07-29T05:00:38;99366.75;;;19.21;98.70
47815;BME280;33579;50.058;18.130;2022-07-29T05:01:40;99360.22;;;19.24;98.52
47815;BME280;33579;50.058;18.130;2022-07-29T05:02:43;99359.47;;;19.30;98.83
47815;BME280;33579;50.058;18.130;2022-07-29T05:03:45;99352.94;;;19.33;99.15
47815;BME280;33579;50.058;18.130;2022-07-29T05:04:46;99354.22;;;19.37;98.87
47815;BME280;33579;50.058;18.130;2022-07-29T05:05:48;99360.00;;;19.41;99.23
47815;BME280;33579;50.058;18.130;2022-07-29T05:06:49;99354.28;;;19.44;98.40
47815;BME280;33579;50.058;18.130;2022-07-29T05:07:51;99352.72;;;19.49;97.49
47815;BME280;33579;50.058;18.130;2022-07-29T05:08:52;99350.69;;;19.51;97.73
47815;BME280;33579;50.058;18.130;2022-07-29T05:09:54;99351.13;;;19.55;97.28
47815;BME280;33579;50.058;18.130;2022-07-29T05:10:55;99356.09;;;19.58;97.00
47815;BME280;33579;50.058;18.130;2022-07-29T05:11:57;99345.22;;;19.60;97.79
47815;BME280;33579;50.058;18.130;2022-07-29T05:12:59;99349.94;;;19.58;99.08
47815;BME280;33579;50.058;18.130;2022-07-29T05:14:00;99344.34;;;19.52;99.36
47815;BME280;33579;50.058;18.130;2022-07-29T05:15:02;99342.69;;;19.51;99.28
47815;BME280;33579;50.058;18.130;2022-07-29T05:16:04;99338.81;;;19.54;95.54
47815;BME280;33579;50.058;18.130;2022-07-29T05:17:05;99343.34;;;19.54;94.50
47815;BME280;33579;50.058;18.130;2022-07-29T05:18:07;99334.69;;;19.51;93.96
47815;BME280;33579;50.058;18.130;2022-07-29T05:19:08;99343.06;;;19.48;91.44
47815;BME280;33579;50.058;18.130;2022-07-29T05:20:15;99348.84;;;19.52;92.03
47815;BME280;33579;50.058;18.130;2022-07-29T05:21:16;99350.56;;;19.60;91.79
47815;BME280;33579;50.058;18.130;2022-07-29T05:22:18;99348.59;;;19.69;91.93
47815;BME280;33579;50.058;18.130;2022-07-29T05:23:20;99359.44;;;19.82;91.49
47815;BME280;33579;50.058;18.130;2022-07-29T05:24:22;99351.84;;;19.86;88.39
47815;BME280;33579;50.058;18.130;2022-07-29T05:25:24;99357.47;;;19.91;88.52
47815;BME280;33579;50.058;18.130;2022-07-29T05:26:44;99359.25;;;20.05;88.52
47815;BME280;33579;50.058;18.130;2022-07-29T05:27:45;99361.59;;;20.15;87.55
47815;BME280;33579;50.058;18.130;2022-07-29T05:28:51;99361.66;;;20.22;86.36
47815;BME280;33579;50.058;18.130;2022-07-29T05:29:52;99361.53;;;20.30;85.47
47815;BME280;33579;50.058;18.130;2022-07-29T05:30:54;99363.41;;;20.36;84.24
47815;BME280;33579;50.058;18.130;2022-07-29T05:31:56;99365.75;;;20.46;83.67
47815;BME280;33579;50.058;18.130;2022-07-29T05:32:57;99358.28;;;20.63;84.10
47815;BME280;33579;50.058;18.130;2022-07-29T05:33:59;99367.41;;;20.76;83.59
47815;BME280;33579;50.058;18.130;2022-07-29T05:35:00;99366.69;;;20.96;82.61
47815;BME280;33579;50.058;18.130;2022-07-29T05:36:04;99364.13;;;21.16;82.35
47815;BME280;33579;50.058;18.130;2022-07-29T05:37:05;99372.63;;;21.33;80.39
47815;BME280;33579;50.058;18.130;2022-07-29T05:38:07;99365.69;;;21.45;79.96
47815;BME280;33579;50.058;18.130;2022-07-29T05:39:08;99356.88;;;21.58;79.78
47815;BME280;33579;50.058;18.130;2022-07-29T05:40:10;99364.13;;;21.71;79.06
47815;BME280;33579;50.058;18.130;2022-07-29T05:41:11;99362.31;;;21.85;79.55
47815;BME280;33579;50.058;18.130;2022-07-29T05:42:13;99360.47;;;21.99;79.38
47815;BME280;33579;50.058;18.130;2022-07-29T05:43:14;99356.34;;;22.10;77.58
47815;BME280;33579;50.058;18.130;2022-07-29T05:44:17;99357.59;;;22.14;76.56